Time;durP1;ratioP1;P1;durP2;ratioP2;P2;SDS_P1;SDS_P2;PMS_P1;PMS_P2;Temp;Humidity;BMP_temperature;BMP_pressure;BME280_temperature;BME280_humidity;BME280_pressure;Samples;Min_cycle;Max_cycle;Signal;HPM_P1;HPM_P2
2023/04/07 00:00:05;;;;;;;;;;;;;;;;;;1033714;28;2756;-58
2023/04/07 00:00:36;;;;;;;;;;;;;;;;;;1033513;28;4011;-57
2023/04/07 00:01:22;;;;;;;;;;;;;;;;;;1032336;28;2871;-58
2023/04/07 00:01:52;;;;;;;;;;;;;;;;;;1033068;28;3881;-59
2023/04/07 00:02:22;;;;;;;;;;;;;;;;;;1032012;28;3043;-56
2023/04/07 00:02:53;;;;;;;;;;;;;;;;;;1033510;28;3854;-59
2023/04/07 00:03:23;;;;;;;;;;;;;;;;;;1034148;28;2101;-59
2023/04/07 00:03:53;;;;;;;;;;;;;;;;;;1030555;28;3993;-58
2023/04/07 00:04:24;;;;;;;;;;;;;;;;;;1033021;28;2878;-59
2023/04/07 00:04:56;;;;;;;;;;;;;;;;;;1034274;28;4037;-59
2023/04/07 00:05:26;;;;;;;;;;;;;;;;;;1033752;28;2783;-60
2023/04/07 00:05:56;;;;;;;;;;;;;;;;;;1034328;28;3824;-54
2023/04/07 00:06:27;;;;;;;;;;;;;;;;;;1034686;28;1973;-58
2023/04/07 00:06:57;;;;;;;;;;;;;;;;;;1034645;28;3800;-58
2023/04/07 00:07:28;;;;;;;;;;;;;;;;;;1033077;28;4050;-58
2023/04/07 00:07:58;;;;;;;;;;;;;;;;;;1035336;28;1813;-59
2023/04/07 00:08:28;;;;;;;;;;;;;;;;;;1032687;28;4045;-59
2023/04/07 00:08:58;;;;;;;;;;;;;;;;;;1038914;28;1672;-57
2023/04/07 00:09:29;;;;;;;;;;;;;;;;;;1039714;28;4060;-57
2023/04/07 00:09:59;;;;;;;;;;;;;;;;;;1038659;28;1821;-57
2023/04/07 00:10:30;;;;;;;;;;;;;;;;;;1035960;28;4083;-58
2023/04/07 00:11:00;;;;;;;;;;;;;;;;;;1038639;28;2937;-54
2023/04/07 00:11:30;;;;;;;;;;;;;;;;;;1038161;28;3959;-57
2023/04/07 00:12:01;;;;;;;;;;;;;;;;;;1039700;28;1667;-56
2023/04/07 00:12:31;;;;;;;;;;;;;;;;;;1035908;28;4259;-58
2023/04/07 00:13:02;;;;;;;;;;;;;;;;;;1036832;28;2817;-59
2023/04/07 00:13:32;;;;;;;;;;;;;;;;;;1038534;28;3926;-59
2023/04/07 00:14:02;;;;;;;;;;;;;;;;;;1037221;28;2912;-57
2023/04/07 00:14:32;;;;;;;;;;;;;;;;;;1037771;28;3891;-57
2023/04/07 00:15:03;;;;;;;;;;;;;;;;;;1038107;28;1826;-56
2023/04/07 00:15:33;;;;;;;;;;;;;;;;;;1038020;28;4051;-57
2023/04/07 00:16:03;;;;;;;;;;;;;;;;;;1036635;28;3613;-57
2023/04/07 00:16:34;;;;;;;;;;;;;;;;;;1038005;28;4083;-58
2023/04/07 00:17:04;;;;;;;;;;;;;;;;;;1039027;28;1726;-56
2023/04/07 00:17:35;;;;;;;;;;;;;;;;;;1036680;28;4219;-58
2023/04/07 00:18:05;;;;;;;;;;;;;;;;;;1039041;28;2653;-57
2023/04/07 00:18:35;;;;;;;;;;;;;;;;;;1038446;28;4186;-55
2023/04/07 00:19:05;;;;;;;;;;;;;;;;;;1038696;28;2298;-56
2023/04/07 00:19:36;;;;;;;;;;;;;;;;;;1037095;28;4106;-55
2023/04/07 00:20:06;;;;;;;;;;;;;;;;;;1039397;28;1769;-57
2023/04/07 00:20:37;;;;;;;;;;;;;;;;;;1036717;28;3886;-58
2023/04/07 00:21:07;;;;;;;;;;;;;;;;;;1039607;28;1397;-59
2023/04/07 00:21:37;;;;;;;;;;;;;;;;;;1036455;28;3818;-57
2023/04/07 00:22:07;;;;;;;;;;;;;;;;;;1038916;28;2683;-58
2023/04/07 00:22:38;;;;;;;;;;;;;;;;;;1037692;28;4060;-60
2023/04/07 00:23:08;;;;;;;;;;;;;;;;;;1036678;28;2727;-56
2023/04/07 00:23:39;;;;;;;;;;;;;;;;;;1038584;28;4013;-56
2023/04/07 00:24:09;;;;;;;;;;;;;;;;;;1037725;28;2869;-55
2023/04/07 00:24:39;;;;;;;;;;;;;;;;;;1037999;28;4105;-57
2023/04/07 00:25:09;;;;;;;;;;;;;;;;;;1038399;28;2695;-56
2023/04/07 00:25:40;;;;;;;;;;;;;;;;;;1039109;28;4080;-56
2023/04/07 00:26:10;;;;;;;;;;;;;;;;;;1039566;28;1733;-56
2023/04/07 00:26:40;;;;;;;;;;;;;;;;;;1038033;28;4051;-57
2023/04/07 00:27:10;;;;;;;;;;;;;;;;;;1037723;28;1813;-59
2023/04/07 00:27:41;;;;;;;;;;;;;;;;;;1038910;28;3968;-59
2023/04/07 00:28:11;;;;;;;;;;;;;;;;;;1039098;28;1858;-58
2023/04/07 00:28:41;;;;;;;;;;;;;;;;;;1035887;28;4045;-57
2023/04/07 00:29:12;;;;;;;;;;;;;;;;;;1037277;28;3024;-58
2023/04/07 00:29:45;;;;;;;;;;;;;;;;;;1036318;28;4136;-58
2023/04/07 00:30:16;;;;;;;;;;;;;;;;;;1036045;28;3072;-59
2023/04/07 00:30:47;;;;;;;;;;;;;;;;;;1039253;28;4049;-57
2023/04/07 00:31:17;;;;;;;;;;;;;;;;;;1037730;28;2817;-56
2023/04/07 00:31:47;;;;;;;;;;;;;;;;;;1037275;28;3863;-58
2023/04/07 00:32:17;;;;;;;;;;;;;;;;;;1039641;28;1698;-56
2023/04/07 00:32:48;;;;;;;;;;;;;;;;;;1037309;28;3897;-58
2023/04/07 00:33:18;;;;;;;;;;;;;;;;;;1038960;28;2137;-60
2023/04/07 00:33:48;;;;;;;;;;;;;;;;;;1038362;28;3888;-55
2023/04/07 00:34:19;;;;;;;;;;;;;;;;;;1036378;28;2908;-57
2023/04/07 00:34:49;;;;;;;;;;;;;;;;;;1038480;28;4042;-58
2023/04/07 00:35:19;;;;;;;;;;;;;;;;;;1039463;28;1405;-58
2023/04/07 00:35:50;;;;;;;;;;;;;;;;;;1036742;28;4024;-58
2023/04/07 00:36:20;;;;;;;;;;;;;;;;;;1038679;28;1696;-59
2023/04/07 00:36:51;;;;;;;;;;;;;;;;;;1037916;28;3894;-56
2023/04/07 00:37:21;;;;;;;;;;;;;;;;;;1038813;28;1857;-56
2023/04/07 00:37:52;;;;;;;;;;;;;;;;;;1037835;28;3841;-56
2023/04/07 00:38:22;;;;;;;;;;;;;;;;;;1038236;28;1813;-59
2023/04/07 00:38:52;;;;;;;;;;;;;;;;;;1038018;28;4631;-55
2023/04/07 00:39:22;;;;;;;;;;;;;;;;;;1037947;28;2908;-57
2023/04/07 00:39:53;;;;;;;;;;;;;;;;;;1037934;28;4021;-59
2023/04/07 00:40:23;;;;;;;;;;;;;;;;;;1036503;28;2852;-58
2023/04/07 00:40:58;;;;;;;;;;;;;;;;;;1037052;28;4022;-58
2023/04/07 00:41:28;;;;;;;;;;;;;;;;;;1034728;28;4101;-58
2023/04/07 00:41:58;;;;;;;;;;;;;;;;;;1037068;28;2707;-59
2023/04/07 00:42:29;;;;;;;;;;;;;;;;;;1037882;28;4166;-60
2023/04/07 00:42:59;;;;;;;;;;;;;;;;;;1037621;28;2750;-58
2023/04/07 00:43:29;;;;;;;;;;;;;;;;;;1037256;28;3807;-60
2023/04/07 00:44:00;;;;;;;;;;;;;;;;;;1038540;28;2678;-58
2023/04/07 00:44:30;;;;;;;;;;;;;;;;;;1036077;28;4128;-58
2023/04/07 00:45:00;;;;;;;;;;;;;;;;;;1037796;28;3378;-56
2023/04/07 00:45:31;;;;;;;;;;;;;;;;;;1036954;28;3859;-59
2023/04/07 00:46:01;;;;;;;;;;;;;;;;;;1039097;28;1705;-57
2023/04/07 00:46:31;;;;;;;;;;;;;;;;;;1035816;28;3798;-58
2023/04/07 00:47:02;;;;;;;;;;;;;;;;;;1038512;28;2465;-60
2023/04/07 00:47:32;;;;;;;;;;;;;;;;;;1037483;28;3894;-60
2023/04/07 00:48:03;;;;;;;;;;;;;;;;;;1037800;28;2616;-58
2023/04/07 00:48:33;;;;;;;;;;;;;;;;;;1037063;28;3968;-60
2023/04/07 00:49:04;;;;;;;;;;;;;;;;;;1038462;28;1714;-56
2023/04/07 00:49:35;;;;;;;;;;;;;;;;;;1038080;28;3987;-55
2023/04/07 00:50:06;;;;;;;;;;;;;;;;;;1036997;28;3092;-57
2023/04/07 00:50:37;;;;;;;;;;;;;;;;;;1039597;28;3899;-58
2023/04/07 00:51:07;;;;;;;;;;;;;;;;;;1037940;28;2795;-58
2023/04/07 00:51:37;;;;;;;;;;;;;;;;;;1038950;28;4059;-60
2023/04/07 00:52:10;;;;;;;;;;;;;;;;;;1038813;28;1728;-58
2023/04/07 00:52:40;;;;;;;;;;;;;;;;;;1037661;28;4049;-57
2023/04/07 00:53:11;;;;;;;;;;;;;;;;;;1038515;28;1890;-58
2023/04/07 00:53:42;;;;;;;;;;;;;;;;;;1038117;28;4036;-58
2023/04/07 00:54:12;;;;;;;;;;;;;;;;;;1037364;28;2968;-57
2023/04/07 00:54:43;;;;;;;;;;;;;;;;;;1038690;28;3910;-57
2023/04/07 00:55:13;;;;;;;;;;;;;;;;;;1036378;28;2797;-58
2023/04/07 00:55:44;;;;;;;;;;;;;;;;;;1038902;28;3779;-59
2023/04/07 00:56:14;;;;;;;;;;;;;;;;;;1037477;28;2824;-58
2023/04/07 00:56:45;;;;;;;;;;;;;;;;;;1039371;28;3894;-59
2023/04/07 00:57:15;;;;;;;;;;;;;;;;;;1038603;28;3146;-58
2023/04/07 00:57:45;;;;;;;;;;;;;;;;;;1037079;28;4028;-58
2023/04/07 00:58:15;;;;;;;;;;;;;;;;;;1037640;28;2821;-59
2023/04/07 00:58:46;;;;;;;;;;;;;;;;;;1038052;28;4099;-60
2023/04/07 00:59:16;;;;;;;;;;;;;;;;;;1038649;28;2635;-59
2023/04/07 00:59:47;;;;;;;;;;;;;;;;;;1041597;28;4064;-58
2023/04/07 01:00:18;;;;;;;;;;;;;;;;;;1039481;28;2869;-58
2023/04/07 01:00:50;;;;;;;;;;;;;;;;;;1041389;28;4046;-59
2023/04/07 01:01:23;;;;;;;;;;;;;;;;;;1041316;28;2311;-58
2023/04/07 01:02:02;;;;;;;;;;;;;;;;;;1035631;28;3933;-58
2023/04/07 01:02:44;;;;;;;;;;;;;;;;;;1037083;28;4070;-59
2023/04/07 01:03:27;;;;;;;;;;;;;;;;;;1037251;28;1923;-55
2023/04/07 01:04:00;;;;;;;;;;;;;;;;;;1035776;28;3728;-59
2023/04/07 01:04:48;;;;;;;;;;;;;;;;;;1036249;28;3937;-56
2023/04/07 01:05:33;;;;;;;;;;;;;;;;;;1037398;28;2982;-59
2023/04/07 01:06:05;;;;;;;;;;;;;;;;;;1037278;28;3897;-59
2023/04/07 01:06:39;;;;;;;;;;;;;;;;;;1039217;28;3889;-58
2023/04/07 01:07:15;;;;;;;;;;;;;;;;;;1039256;28;1836;-58
2023/04/07 01:07:49;;;;;;;;;;;;;;;;;;1038466;28;4101;-56
2023/04/07 01:08:23;;;;;;;;;;;;;;;;;;1039426;28;1687;-57
2023/04/07 01:08:56;;;;;;;;;;;;;;;;;;1041046;28;3797;-57
2023/04/07 01:09:32;;;;;;;;;;;;;;;;;;1039136;28;2755;-57
2023/04/07 01:10:04;;;;;;;;;;;;;;;;;;1038766;28;3827;-54
2023/04/07 01:10:39;;;;;;;;;;;;;;;;;;1037451;28;4071;-51
2023/04/07 01:11:23;;;;;;;;;;;;;;;;;;1038358;28;2817;-59
2023/04/07 01:12:14;;;;;;;;;;;;;;;;;;1038968;28;4036;-61
2023/04/07 01:13:00;;;;;;;;;;;;;;;;;;1037915;28;4077;-55
2023/04/07 01:13:33;;;;;;;;;;;;;;;;;;1037761;28;3911;-58
2023/04/07 01:14:05;;;;;;;;;;;;;;;;;;1037748;28;2792;-59
2023/04/07 01:14:39;;;;;;;;;;;;;;;;;;1037940;28;3995;-59
2023/04/07 01:15:10;;;;;;;;;;;;;;;;;;1037828;28;2615;-57
2023/04/07 01:15:41;;;;;;;;;;;;;;;;;;1038281;28;4414;-56
2023/04/07 01:16:15;;;;;;;;;;;;;;;;;;1041101;28;2591;-58
2023/04/07 01:16:47;;;;;;;;;;;;;;;;;;1038804;28;3970;-60
2023/04/07 01:17:19;;;;;;;;;;;;;;;;;;1038881;28;1858;-58
2023/04/07 01:17:52;;;;;;;;;;;;;;;;;;1039407;28;3895;-57
2023/04/07 01:18:33;;;;;;;;;;;;;;;;;;1038608;28;2166;-60
2023/04/07 01:19:10;;;;;;;;;;;;;;;;;;1039198;28;3832;-60
2023/04/07 01:19:44;;;;;;;;;;;;;;;;;;1037152;28;4087;-57
2023/04/07 01:20:19;;;;;;;;;;;;;;;;;;1040017;28;1948;-58
2023/04/07 01:20:51;;;;;;;;;;;;;;;;;;1043131;28;3955;-58
2023/04/07 01:21:25;;;;;;;;;;;;;;;;;;1039602;28;1585;-58
2023/04/07 01:21:57;;;;;;;;;;;;;;;;;;1036716;28;3823;-56
2023/04/07 01:22:32;;;;;;;;;;;;;;;;;;1037886;28;4148;-58
2023/04/07 01:23:04;;;;;;;;;;;;;;;;;;1039518;28;2090;-56
2023/04/07 01:23:34;;;;;;;;;;;;;;;;;;1038622;28;4154;-59
2023/04/07 01:24:23;;;;;;;;;;;;;;;;;;1037974;28;2712;-59
2023/04/07 01:25:12;;;;;;;;;;;;;;;;;;1038276;28;4059;-57
2023/04/07 01:25:58;;;;;;;;;;;;;;;;;;1036886;28;4117;-57
2023/04/07 01:26:29;;;;;;;;;;;;;;;;;;1039190;28;4113;-59
2023/04/07 01:27:10;;;;;;;;;;;;;;;;;;1037449;28;2755;-57
2023/04/07 01:27:40;;;;;;;;;;;;;;;;;;1038758;28;3795;-55
2023/04/07 01:28:30;;;;;;;;;;;;;;;;;;1038505;28;1867;-57
2023/04/07 01:29:00;;;;;;;;;;;;;;;;;;1036668;28;3989;-60
2023/04/07 01:29:33;;;;;;;;;;;;;;;;;;1039219;28;3995;-54
2023/04/07 01:30:06;;;;;;;;;;;;;;;;;;1037030;28;2825;-58
2023/04/07 01:30:38;;;;;;;;;;;;;;;;;;1039774;28;4045;-55
2023/04/07 01:31:10;;;;;;;;;;;;;;;;;;1037348;28;2710;-55
2023/04/07 01:31:41;;;;;;;;;;;;;;;;;;1038464;28;3984;-57
2023/04/07 01:32:12;;;;;;;;;;;;;;;;;;1040133;28;1639;-58
2023/04/07 01:32:44;;;;;;;;;;;;;;;;;;1037482;28;3782;-57
2023/04/07 01:33:15;;;;;;;;;;;;;;;;;;1038843;28;2788;-59
2023/04/07 01:33:46;;;;;;;;;;;;;;;;;;1037792;28;3806;-57
2023/04/07 01:34:17;;;;;;;;;;;;;;;;;;1037666;28;2871;-60
2023/04/07 01:34:48;;;;;;;;;;;;;;;;;;1037016;28;4244;-58
2023/04/07 01:35:18;;;;;;;;;;;;;;;;;;1038832;28;1789;-58
2023/04/07 01:35:50;;;;;;;;;;;;;;;;;;1036127;28;3826;-56
2023/04/07 01:36:21;;;;;;;;;;;;;;;;;;1036787;28;2865;-59
2023/04/07 01:36:53;;;;;;;;;;;;;;;;;;1039521;28;4012;-58
2023/04/07 01:37:25;;;;;;;;;;;;;;;;;;1039224;28;1749;-56
2023/04/07 01:37:56;;;;;;;;;;;;;;;;;;1037791;28;3960;-55
2023/04/07 01:38:27;;;;;;;;;;;;;;;;;;1039493;28;1802;-59
2023/04/07 01:38:58;;;;;;;;;;;;;;;;;;1037232;28;3857;-57
2023/04/07 01:39:29;;;;;;;;;;;;;;;;;;1037207;28;4109;-59
2023/04/07 01:39:59;;;;;;;;;;;;;;;;;;1039236;28;2111;-57
2023/04/07 01:40:31;;;;;;;;;;;;;;;;;;1039622;28;3971;-57
2023/04/07 01:41:02;;;;;;;;;;;;;;;;;;1038171;28;2756;-56
2023/04/07 01:41:32;;;;;;;;;;;;;;;;;;1038399;28;4456;-57
2023/04/07 01:42:04;;;;;;;;;;;;;;;;;;1037895;28;2821;-57
2023/04/07 01:42:35;;;;;;;;;;;;;;;;;;1037826;28;4067;-59
2023/04/07 01:43:06;;;;;;;;;;;;;;;;;;1038656;28;2320;-57
2023/04/07 01:43:36;;;;;;;;;;;;;;;;;;1037051;28;3807;-59
2023/04/07 01:44:07;;;;;;;;;;;;;;;;;;1036778;28;2758;-57
2023/04/07 01:44:38;;;;;;;;;;;;;;;;;;1037022;28;4074;-61
2023/04/07 01:45:09;;;;;;;;;;;;;;;;;;1038417;28;2944;-56
2023/04/07 01:45:40;;;;;;;;;;;;;;;;;;1036299;28;3908;-58
2023/04/07 01:46:10;;;;;;;;;;;;;;;;;;1039706;28;1694;-59
2023/04/07 01:46:40;;;;;;;;;;;;;;;;;;1035478;28;3918;-54
2023/04/07 01:47:11;;;;;;;;;;;;;;;;;;1034877;28;3061;-60
2023/04/07 01:47:42;;;;;;;;;;;;;;;;;;1034689;28;3819;-57
2023/04/07 01:48:14;;;;;;;;;;;;;;;;;;1036130;28;1741;-56
2023/04/07 01:48:45;;;;;;;;;;;;;;;;;;1032217;28;3813;-60
2023/04/07 01:49:17;;;;;;;;;;;;;;;;;;1034472;28;2972;-59
2023/04/07 01:49:48;;;;;;;;;;;;;;;;;;1033836;28;3832;-56
2023/04/07 01:50:20;;;;;;;;;;;;;;;;;;1033886;28;2797;-56
2023/04/07 01:50:50;;;;;;;;;;;;;;;;;;1035455;28;4032;-57
2023/04/07 01:51:21;;;;;;;;;;;;;;;;;;1034774;28;2816;-56
2023/04/07 01:51:53;;;;;;;;;;;;;;;;;;1033410;28;4025;-52
2023/04/07 01:52:27;;;;;;;;;;;;;;;;;;1035734;28;1813;-57
2023/04/07 01:52:57;;;;;;;;;;;;;;;;;;1032201;28;3891;-58
2023/04/07 01:53:28;;;;;;;;;;;;;;;;;;1034332;28;2717;-57
2023/04/07 01:54:00;;;;;;;;;;;;;;;;;;1033228;28;3798;-55
2023/04/07 01:54:31;;;;;;;;;;;;;;;;;;1032963;28;4132;-59
2023/04/07 01:55:02;;;;;;;;;;;;;;;;;;1034789;28;1681;-58
2023/04/07 01:55:33;;;;;;;;;;;;;;;;;;1034861;28;4053;-58
2023/04/07 01:56:04;;;;;;;;;;;;;;;;;;1032666;28;2914;-58
2023/04/07 01:56:34;;;;;;;;;;;;;;;;;;1033116;28;3887;-57
2023/04/07 01:57:05;;;;;;;;;;;;;;;;;;1033465;28;2802;-58
2023/04/07 01:57:35;;;;;;;;;;;;;;;;;;1034726;28;3992;-56
2023/04/07 01:58:06;;;;;;;;;;;;;;;;;;1034663;28;2985;-58
2023/04/07 01:58:36;;;;;;;;;;;;;;;;;;1031891;28;4073;-59
2023/04/07 01:59:06;;;;;;;;;;;;;;;;;;1034504;28;2496;-60
2023/04/07 01:59:36;;;;;;;;;;;;;;;;;;1034559;28;4089;-57
2023/04/07 02:00:07;;;;;;;;;;;;;;;;;;1033166;28;2815;-59
2023/04/07 02:00:38;;;;;;;;;;;;;;;;;;1033003;28;4079;-57
2023/04/07 02:01:08;;;;;;;;;;;;;;;;;;1033792;28;2658;-58
2023/04/07 02:01:38;;;;;;;;;;;;;;;;;;1032167;28;4997;-58
2023/04/07 02:02:08;;;;;;;;;;;;;;;;;;1035554;28;2819;-59
2023/04/07 02:02:40;;;;;;;;;;;;;;;;;;1033860;28;3888;-55
2023/04/07 02:03:19;;;;;;;;;;;;;;;;;;1034528;28;2858;-55
2023/04/07 02:03:55;;;;;;;;;;;;;;;;;;1033141;28;4012;-56
2023/04/07 02:04:37;;;;;;;;;;;;;;;;;;1035132;28;2843;-55
2023/04/07 02:05:08;;;;;;;;;;;;;;;;;;1035282;28;3821;-59
2023/04/07 02:05:39;;;;;;;;;;;;;;;;;;1035089;28;3836;-59
2023/04/07 02:06:11;;;;;;;;;;;;;;;;;;1033705;28;2718;-55
2023/04/07 02:06:48;;;;;;;;;;;;;;;;;;1035023;28;4043;-56
2023/04/07 02:07:21;;;;;;;;;;;;;;;;;;1033647;28;3459;-57
2023/04/07 02:07:54;;;;;;;;;;;;;;;;;;1034112;28;4118;-57
2023/04/07 02:08:26;;;;;;;;;;;;;;;;;;1034190;28;2780;-58
2023/04/07 02:09:01;;;;;;;;;;;;;;;;;;1034147;28;4041;-59
2023/04/07 02:09:32;;;;;;;;;;;;;;;;;;1034331;28;3965;-58
2023/04/07 02:10:04;;;;;;;;;;;;;;;;;;1035177;28;1705;-56
2023/04/07 02:10:36;;;;;;;;;;;;;;;;;;1032448;28;4049;-57
2023/04/07 02:11:09;;;;;;;;;;;;;;;;;;1033586;28;2635;-58
2023/04/07 02:11:41;;;;;;;;;;;;;;;;;;1033619;28;3974;-58
2023/04/07 02:12:12;;;;;;;;;;;;;;;;;;1031845;28;2690;-55
2023/04/07 02:12:45;;;;;;;;;;;;;;;;;;1035339;28;4140;-56
2023/04/07 02:13:17;;;;;;;;;;;;;;;;;;1034548;28;1893;-58
2023/04/07 02:13:48;;;;;;;;;;;;;;;;;;1035491;28;3879;-58
2023/04/07 02:14:20;;;;;;;;;;;;;;;;;;1032421;28;2802;-59
2023/04/07 02:14:50;;;;;;;;;;;;;;;;;;1034290;28;3818;-58
2023/04/07 02:15:22;;;;;;;;;;;;;;;;;;1034570;28;2872;-56
2023/04/07 02:15:53;;;;;;;;;;;;;;;;;;1034007;28;3851;-55
2023/04/07 02:16:24;;;;;;;;;;;;;;;;;;1034150;28;2740;-55
2023/04/07 02:16:55;;;;;;;;;;;;;;;;;;1034169;28;3825;-59
2023/04/07 02:17:27;;;;;;;;;;;;;;;;;;1036386;28;1816;-56
2023/04/07 02:17:58;;;;;;;;;;;;;;;;;;1033611;28;3716;-58
2023/04/07 02:18:31;;;;;;;;;;;;;;;;;;1034432;28;4158;-58
2023/04/07 02:19:02;;;;;;;;;;;;;;;;;;1034715;28;1719;-59
2023/04/07 02:19:34;;;;;;;;;;;;;;;;;;1035560;28;3999;-55
2023/04/07 02:20:06;;;;;;;;;;;;;;;;;;1033652;28;2297;-56
2023/04/07 02:20:37;;;;;;;;;;;;;;;;;;1035203;28;3932;-59
2023/04/07 02:21:07;;;;;;;;;;;;;;;;;;1033982;28;2735;-59
2023/04/07 02:21:38;;;;;;;;;;;;;;;;;;1034486;28;4067;-59
2023/04/07 02:22:09;;;;;;;;;;;;;;;;;;1033382;28;1762;-58
2023/04/07 02:22:41;;;;;;;;;;;;;;;;;;1033660;28;3922;-58
2023/04/07 02:23:11;;;;;;;;;;;;;;;;;;1033365;28;2849;-56
2023/04/07 02:23:42;;;;;;;;;;;;;;;;;;1036164;28;3946;-55
2023/04/07 02:24:12;;;;;;;;;;;;;;;;;;1033965;28;2404;-58
2023/04/07 02:24:42;;;;;;;;;;;;;;;;;;1034534;28;4038;-60
2023/04/07 02:25:29;;;;;;;;;;;;;;;;;;1035347;28;2213;-57
2023/04/07 02:26:00;;;;;;;;;;;;;;;;;;1033779;28;3697;-59
2023/04/07 02:26:34;;;;;;;;;;;;;;;;;;1032907;28;4271;-58
2023/04/07 02:27:05;;;;;;;;;;;;;;;;;;1033949;28;2796;-57
2023/04/07 02:27:35;;;;;;;;;;;;;;;;;;1034545;28;4078;-59
2023/04/07 02:28:06;;;;;;;;;;;;;;;;;;1035790;28;2967;-57
2023/04/07 02:28:36;;;;;;;;;;;;;;;;;;1034936;28;3898;-58
2023/04/07 02:29:06;;;;;;;;;;;;;;;;;;1032891;28;2993;-57
2023/04/07 02:29:36;;;;;;;;;;;;;;;;;;1037018;28;4046;-58
2023/04/07 02:30:07;;;;;;;;;;;;;;;;;;1032155;28;3018;-56
2023/04/07 02:30:37;;;;;;;;;;;;;;;;;;1035326;28;4061;-58
2023/04/07 02:31:07;;;;;;;;;;;;;;;;;;1034690;28;2863;-56
2023/04/07 02:31:38;;;;;;;;;;;;;;;;;;1034445;28;3895;-60
2023/04/07 02:32:08;;;;;;;;;;;;;;;;;;1034337;28;2506;-59
2023/04/07 02:32:38;;;;;;;;;;;;;;;;;;1033641;28;4088;-56
2023/04/07 02:33:09;;;;;;;;;;;;;;;;;;1034407;28;2830;-57
2023/04/07 02:33:39;;;;;;;;;;;;;;;;;;1034606;28;3812;-57
2023/04/07 02:34:09;;;;;;;;;;;;;;;;;;1032871;28;2828;-57
2023/04/07 02:34:40;;;;;;;;;;;;;;;;;;1035012;28;4067;-60
2023/04/07 02:35:11;;;;;;;;;;;;;;;;;;1033407;28;2816;-58
2023/04/07 02:35:41;;;;;;;;;;;;;;;;;;1032806;28;4045;-59
2023/04/07 02:36:11;;;;;;;;;;;;;;;;;;1034575;28;1861;-54
2023/04/07 02:36:42;;;;;;;;;;;;;;;;;;1034680;28;3943;-58
2023/04/07 02:37:12;;;;;;;;;;;;;;;;;;1033379;28;2695;-56
2023/04/07 02:37:43;;;;;;;;;;;;;;;;;;1032835;28;4136;-58
2023/04/07 02:38:13;;;;;;;;;;;;;;;;;;1035522;28;2024;-56
2023/04/07 02:38:44;;;;;;;;;;;;;;;;;;1033969;28;3803;-59
2023/04/07 02:39:14;;;;;;;;;;;;;;;;;;1034816;28;1863;-55
2023/04/07 02:39:44;;;;;;;;;;;;;;;;;;1032627;28;3823;-57
2023/04/07 02:40:15;;;;;;;;;;;;;;;;;;1033966;28;2999;-59
2023/04/07 02:40:45;;;;;;;;;;;;;;;;;;1033905;28;3964;-59
2023/04/07 02:41:15;;;;;;;;;;;;;;;;;;1034505;28;2764;-57
2023/04/07 02:41:46;;;;;;;;;;;;;;;;;;1033254;28;5165;-58
2023/04/07 02:42:16;;;;;;;;;;;;;;;;;;1035697;28;2802;-58
2023/04/07 02:42:46;;;;;;;;;;;;;;;;;;1032723;28;3785;-59
2023/04/07 02:43:18;;;;;;;;;;;;;;;;;;1033424;28;3001;-59
2023/04/07 02:43:48;;;;;;;;;;;;;;;;;;1034645;28;4047;-59
2023/04/07 02:44:18;;;;;;;;;;;;;;;;;;1035810;28;1611;-58
2023/04/07 02:44:49;;;;;;;;;;;;;;;;;;1032973;28;3854;-60
2023/04/07 02:45:19;;;;;;;;;;;;;;;;;;1034148;28;2925;-58
2023/04/07 02:45:50;;;;;;;;;;;;;;;;;;1032925;28;4259;-58
2023/04/07 02:46:20;;;;;;;;;;;;;;;;;;1035796;28;1750;-56
2023/04/07 02:46:50;;;;;;;;;;;;;;;;;;1034716;28;3746;-58
2023/04/07 02:47:21;;;;;;;;;;;;;;;;;;1034539;28;1359;-57
2023/04/07 02:47:51;;;;;;;;;;;;;;;;;;1034880;28;4180;-57
2023/04/07 02:48:21;;;;;;;;;;;;;;;;;;1035028;28;2275;-55
2023/04/07 02:48:51;;;;;;;;;;;;;;;;;;1034319;28;3983;-57
2023/04/07 02:49:22;;;;;;;;;;;;;;;;;;1033704;28;2740;-58
2023/04/07 02:49:52;;;;;;;;;;;;;;;;;;1034532;28;4027;-57
2023/04/07 02:50:24;;;;;;;;;;;;;;;;;;1034154;28;2705;-54
2023/04/07 02:50:55;;;;;;;;;;;;;;;;;;1035354;28;3884;-58
2023/04/07 02:51:25;;;;;;;;;;;;;;;;;;1033619;28;2842;-54
2023/04/07 02:51:56;;;;;;;;;;;;;;;;;;1034912;28;4016;-58
2023/04/07 02:52:26;;;;;;;;;;;;;;;;;;1034778;28;1899;-58
2023/04/07 02:52:56;;;;;;;;;;;;;;;;;;1032995;28;3807;-55
2023/04/07 02:53:27;;;;;;;;;;;;;;;;;;1034210;28;2930;-58
2023/04/07 02:53:57;;;;;;;;;;;;;;;;;;1033990;28;3889;-57
2023/04/07 02:54:27;;;;;;;;;;;;;;;;;;1034932;28;1900;-58
2023/04/07 02:54:57;;;;;;;;;;;;;;;;;;1034782;28;3912;-59
2023/04/07 02:55:28;;;;;;;;;;;;;;;;;;1032620;28;2768;-55
2023/04/07 02:55:58;;;;;;;;;;;;;;;;;;1032610;28;5258;-58
2023/04/07 02:56:28;;;;;;;;;;;;;;;;;;1035337;28;3975;-59
2023/04/07 02:56:59;;;;;;;;;;;;;;;;;;1034134;28;1918;-60
2023/04/07 02:57:30;;;;;;;;;;;;;;;;;;1035078;28;4074;-56
2023/04/07 02:58:00;;;;;;;;;;;;;;;;;;1032434;28;2778;-55
2023/04/07 02:58:30;;;;;;;;;;;;;;;;;;1035035;28;4953;-58
2023/04/07 02:59:00;;;;;;;;;;;;;;;;;;1034764;28;1943;-57
2023/04/07 02:59:31;;;;;;;;;;;;;;;;;;1034781;28;4101;-58
2023/04/07 03:00:02;;;;;;;;;;;;;;;;;;1033935;28;2672;-56
2023/04/07 03:00:32;;;;;;;;;;;;;;;;;;1034939;28;4323;-57
2023/04/07 03:01:03;;;;;;;;;;;;;;;;;;1035087;28;2192;-55
2023/04/07 03:01:35;;;;;;;;;;;;;;;;;;1034129;28;3901;-55
2023/04/07 03:02:05;;;;;;;;;;;;;;;;;;1033891;28;2929;-55
2023/04/07 03:02:35;;;;;;;;;;;;;;;;;;1033982;28;4068;-59
2023/04/07 03:03:06;;;;;;;;;;;;;;;;;;1032223;28;2761;-58
2023/04/07 03:03:36;;;;;;;;;;;;;;;;;;1033204;28;4445;-55
2023/04/07 03:04:06;;;;;;;;;;;;;;;;;;1033220;28;2779;-57
2023/04/07 03:04:37;;;;;;;;;;;;;;;;;;1034523;28;4043;-57
2023/04/07 03:05:08;;;;;;;;;;;;;;;;;;1035447;28;1585;-59
2023/04/07 03:05:38;;;;;;;;;;;;;;;;;;1033082;28;3896;-55
2023/04/07 03:06:08;;;;;;;;;;;;;;;;;;1035698;28;1647;-57
2023/04/07 03:06:38;;;;;;;;;;;;;;;;;;1034181;28;4052;-57
2023/04/07 03:07:09;;;;;;;;;;;;;;;;;;1033838;28;3167;-56
2023/04/07 03:07:39;;;;;;;;;;;;;;;;;;1034978;28;4049;-59
2023/04/07 03:08:09;;;;;;;;;;;;;;;;;;1035162;28;2335;-60
2023/04/07 03:08:41;;;;;;;;;;;;;;;;;;1033943;28;4028;-58
2023/04/07 03:09:11;;;;;;;;;;;;;;;;;;1032605;28;2989;-55
2023/04/07 03:09:41;;;;;;;;;;;;;;;;;;1035386;28;3891;-60
2023/04/07 03:10:12;;;;;;;;;;;;;;;;;;1039239;28;1710;-55
2023/04/07 03:10:42;;;;;;;;;;;;;;;;;;1039041;28;4013;-59
2023/04/07 03:11:13;;;;;;;;;;;;;;;;;;1037472;28;2790;-59
2023/04/07 03:11:43;;;;;;;;;;;;;;;;;;1038379;28;3979;-60
2023/04/07 03:12:13;;;;;;;;;;;;;;;;;;1039237;28;2702;-60
2023/04/07 03:12:44;;;;;;;;;;;;;;;;;;1038360;28;3895;-60
2023/04/07 03:13:17;;;;;;;;;;;;;;;;;;1038407;28;2698;-56
2023/04/07 03:13:48;;;;;;;;;;;;;;;;;;1036889;28;4051;-55
2023/04/07 03:14:18;;;;;;;;;;;;;;;;;;1038366;28;2782;-58
2023/04/07 03:14:48;;;;;;;;;;;;;;;;;;1037952;28;4043;-57
2023/04/07 03:15:19;;;;;;;;;;;;;;;;;;1035740;28;2973;-55
2023/04/07 03:15:50;;;;;;;;;;;;;;;;;;1031642;28;3872;-55
2023/04/07 03:16:20;;;;;;;;;;;;;;;;;;1033043;28;2841;-58
2023/04/07 03:16:50;;;;;;;;;;;;;;;;;;1033690;28;4138;-59
2023/04/07 03:17:20;;;;;;;;;;;;;;;;;;1037478;28;2830;-54
2023/04/07 03:17:51;;;;;;;;;;;;;;;;;;1037915;28;4073;-58
2023/04/07 03:18:21;;;;;;;;;;;;;;;;;;1039081;28;1798;-57
2023/04/07 03:18:51;;;;;;;;;;;;;;;;;;1038870;28;4014;-56
2023/04/07 03:19:21;;;;;;;;;;;;;;;;;;1037697;28;2821;-59
2023/04/07 03:19:52;;;;;;;;;;;;;;;;;;1037937;28;3991;-58
2023/04/07 03:20:22;;;;;;;;;;;;;;;;;;1036639;28;3106;-57
2023/04/07 03:20:54;;;;;;;;;;;;;;;;;;1038844;28;3813;-57
2023/04/07 03:21:25;;;;;;;;;;;;;;;;;;1037817;28;2800;-59
2023/04/07 03:21:55;;;;;;;;;;;;;;;;;;1037961;28;3999;-58
2023/04/07 03:22:25;;;;;;;;;;;;;;;;;;1037385;28;2783;-56
2023/04/07 03:22:56;;;;;;;;;;;;;;;;;;1037379;28;4030;-57
2023/04/07 03:23:28;;;;;;;;;;;;;;;;;;1037528;28;2991;-59
2023/04/07 03:23:58;;;;;;;;;;;;;;;;;;1037604;28;4765;-57
2023/04/07 03:24:28;;;;;;;;;;;;;;;;;;1038926;28;4081;-57
2023/04/07 03:24:59;;;;;;;;;;;;;;;;;;1037619;28;2682;-57
2023/04/07 03:25:30;;;;;;;;;;;;;;;;;;1037830;28;3901;-58
2023/04/07 03:26:00;;;;;;;;;;;;;;;;;;1037941;28;2542;-57
2023/04/07 03:26:30;;;;;;;;;;;;;;;;;;1038361;28;3961;-57
2023/04/07 03:27:01;;;;;;;;;;;;;;;;;;1036946;28;2742;-59
2023/04/07 03:27:31;;;;;;;;;;;;;;;;;;1038583;28;3802;-58
2023/04/07 03:28:01;;;;;;;;;;;;;;;;;;1039593;28;1832;-56
2023/04/07 03:28:31;;;;;;;;;;;;;;;;;;1038025;28;4438;-59
2023/04/07 03:29:03;;;;;;;;;;;;;;;;;;1037036;28;2715;-56
2023/04/07 03:29:33;;;;;;;;;;;;;;;;;;1037261;28;3912;-61
2023/04/07 03:30:03;;;;;;;;;;;;;;;;;;1038961;28;1675;-58
2023/04/07 03:30:34;;;;;;;;;;;;;;;;;;1037948;28;4181;-58
2023/04/07 03:31:04;;;;;;;;;;;;;;;;;;1037374;28;2774;-57
2023/04/07 03:31:36;;;;;;;;;;;;;;;;;;1037633;28;4059;-58
2023/04/07 03:32:06;;;;;;;;;;;;;;;;;;1033824;28;2913;-56
2023/04/07 03:32:37;;;;;;;;;;;;;;;;;;1033889;28;4089;-58
2023/04/07 03:33:07;;;;;;;;;;;;;;;;;;1036857;28;2754;-57
2023/04/07 03:33:37;;;;;;;;;;;;;;;;;;1038845;28;4058;-58
2023/04/07 03:34:07;;;;;;;;;;;;;;;;;;1039098;28;2707;-58
2023/04/07 03:34:38;;;;;;;;;;;;;;;;;;1038946;28;3879;-59
2023/04/07 03:35:08;;;;;;;;;;;;;;;;;;1038019;28;2208;-59
2023/04/07 03:35:39;;;;;;;;;;;;;;;;;;1035931;28;4063;-60
2023/04/07 03:36:10;;;;;;;;;;;;;;;;;;1038046;28;4128;-59
2023/04/07 03:36:40;;;;;;;;;;;;;;;;;;1039168;28;4248;-57
2023/04/07 03:37:10;;;;;;;;;;;;;;;;;;1037949;28;2713;-58
2023/04/07 03:37:41;;;;;;;;;;;;;;;;;;1037328;28;4070;-58
2023/04/07 03:38:11;;;;;;;;;;;;;;;;;;1032544;28;2693;-55
2023/04/07 03:38:41;;;;;;;;;;;;;;;;;;1034871;28;3906;-59